Indianapolis, IN (46201)

9:21 PM EST on February 13, 2016 (GMT -0500)
North Fountain Square | | Change Station
CLOSE
Current Station
Personal Weather Station
Location: Indianapolis, IN
Elevation: 738 ft
Nearby Weather Stations
Active Advisory: Winter Weather Advisory

Elev 738 ft 39.76 °N, 86.14 °W | Updated 13 seconds ago

Mostly Cloudy
Mostly Cloudy
17.1 °F
Feels Like 17 °F
N
0.2
Wind Variable Wind from West
Gusts 2.5 mph

Today
High -- | Low -- °F
--% Chance of Precip.
Yesterday
High -- | Low -- °F
Precip. -- in
Pressure 30.54 in
Visibility 10.0 miles
Clouds Few 14000 ft
Overcast 22000 ft
Windchill 17 °F
Dew Point -9 °F
Humidity 30%
Rainfall in
Snow Depth Not available.
7:40 AM 6:17 PM
Waxing Crescent, 36% visible
METAR KIND 140154Z 26005KT 10SM FEW140 OVC220 M11/M18 A3049 RMK AO2 SLP341 T11061178
Pressure 30.54 in
Visibility 10.0 miles
Clouds Few 14000 ft
Overcast 22000 ft
Windchill 17 °F
Dew Point -9 °F
Humidity 30%
Rainfall in
Snow Depth Not available.
7:40 AM 6:17 PM
Waxing Crescent, 36% visible
METAR KIND 140154Z 26005KT 10SM FEW140 OVC220 M11/M18 A3049 RMK AO2 SLP341 T11061178

10-Day Weather Forecast

Almanac

Astronomy

Feb. 13, 2016 Rise Set
Actual Time
Civil Twilight
Nautical Twilight
Astronomical Twilight
Moon
Length of Visible Light
Length of Day
Tomorrow will be .
, % of the Moon is Illuminated

Today's Extremes

State Highs State Lows

Community

WunderPhotos

Upload Photos

1,892,726 photos uploaded!

WunderBlog® & News

Nearby

Air Quality

  Air Quality AQ Index Pollutant
Not available.

Snow Depth

Station Depth Elevation

Earthquake Activity

City Distance Mag. Time & Date
Minimum magnitude displayed is 2.5.

Coastal Water Temperatures

Place Temperature

Stations

Nearby Weather Stations

Station Location Temp. Windchill Dew Point Humidity Wind Precip. Elev Updated Type
                   

Watches & Warnings

Winter Weather Advisory
Issued: 3:58 PM EST Feb. 13, 2016 – National Weather Service

... Winter Weather Advisory in effect from 8 am Sunday to midnight
EST Sunday night...

The National Weather Service in Indianapolis has issued a Winter
Weather Advisory for snow accumulations ... which is in effect
from 8 am Sunday to midnight EST Sunday night.

* Timing... snow developing by mid morning and continuing the rest
of the day and gradually diminishing Sunday night.

* Main impact... snow covered roads and poor travel conditions.
Snow accumulations of up to three inches are possible.

Precautionary/preparedness actions...

A Winter Weather Advisory for snow means that periods of snow
will cause primarily travel difficulties. Be prepared for snow
covered roads and limited visibilities... and use caution while
driving.